Friedman Memorial Airport
KSUN : now visible

Airfield :











YOU CAN JOIN US ON...

 
LOGIN :

Register | Disclaimer

   EN    FR    IT 

 









Legend :    VFR   Marginal VFR   IFR   Intensive IFR   Very Intensive IFR
Visi :
Ceiling :
>= 8 km
>= 3000ft
5 to 8 km
1000 to 3000 ft
1500m to 5 km
500 to 1000 ft
800 to 1500m
200 to 500 ft
< 800m
< 200 ft
Symbols :   Thunderstorms  Fog  Heavy snow  Heavy precipitations  Wind > 20 kt






- Airport Elevation : 5318 ft


KSUN - Friedman Memorial

CURRENT METAR :
  • 300047Z 27010KT 10SM CLR 16/M03 A3007

EXPIRED METARs :
  • 292355Z 27013KT 10SM CLR 17/M04 A3007
  • 292255Z 29013G19KT 10SM CLR 18/M05 A3005
  • 292155Z 24013G21KT 10SM FEW100 17/M07 A3005
  • 292055Z 21014G20KT 10SM CLR 17/M02 A3006

TAF KSUN
Valid from the 30 at 00:00 until the 31 at 06:00 UTC


292320Z 3000/3106 28010G20KT P6SM SKC
FM300300 31011KT P6SM SKC
FM301700 13008KT P6SM SKC
FM302000 20010G20KT P6SM SKC
FM310300 32009KT P6SM SKC AMD LTD TO CLD VIS AND WIND 3005/3013
KZLC FIR / North America



MET'MAP, your aeronautical weather chart ! - Copyright ORBIFLY December 2007 - Disclaimer

ORBIFLY MET'MAP TEAM :

Programming & Development : Alexandra Zaïnal
Original concept : Baudouin d'Aumeries
Technical & hardware support : Manuel Goepfert
Assistance : Marc-Olivier Méhu




SOURCES & CREDITS :

   NOAA       Earth
Advisory